createdAt,value
2023-07-24T00:02:10.618Z,99723.90
2023-07-24T00:04:38.547Z,99725.06
2023-07-24T00:07:06.805Z,99724.27
2023-07-24T00:09:34.577Z,99721.55
2023-07-24T00:12:02.585Z,99725.29
2023-07-24T00:14:30.663Z,99719.95
2023-07-24T00:16:58.759Z,99721.80
2023-07-24T00:19:26.546Z,99722.38
2023-07-24T00:21:54.422Z,99723.54
2023-07-24T00:24:22.269Z,99723.23
2023-07-24T00:26:50.251Z,99720.64
2023-07-24T00:29:17.983Z,99723.24
2023-07-24T00:31:46.054Z,99722.01
2023-07-24T00:34:13.975Z,99719.20
2023-07-24T00:36:41.926Z,99715.70
2023-07-24T00:39:10.876Z,99714.09
2023-07-24T00:41:38.920Z,99708.36
2023-07-24T00:44:06.890Z,99708.55
2023-07-24T00:46:36.343Z,99703.30
2023-07-24T00:49:08.265Z,99698.42
2023-07-24T00:51:36.229Z,99692.34
2023-07-24T00:54:04.997Z,99694.05
2023-07-24T00:56:33.470Z,99691.67
2023-07-24T00:59:02.172Z,99692.20
2023-07-24T01:01:30.664Z,99691.91
2023-07-24T01:03:58.980Z,99690.20
2023-07-24T01:06:27.194Z,99693.51
2023-07-24T01:08:55.452Z,99697.77
2023-07-24T01:11:31.488Z,99701.93
2023-07-24T01:14:05.429Z,99705.09
2023-07-24T01:16:39.107Z,99707.86
2023-07-24T01:19:28.487Z,99710.84
2023-07-24T01:22:21.477Z,99713.10
2023-07-24T01:25:03.786Z,99710.05
2023-07-24T01:27:31.847Z,99707.80
2023-07-24T01:29:59.607Z,99710.45
2023-07-24T01:32:27.746Z,99710.77
2023-07-24T01:34:55.794Z,99713.27
2023-07-24T01:37:23.735Z,99709.21
2023-07-24T01:39:51.549Z,99704.15
2023-07-24T01:42:19.636Z,99698.77
2023-07-24T01:44:53.213Z,99701.88
2023-07-24T01:47:21.381Z,99702.25
2023-07-24T01:49:49.771Z,99701.02
2023-07-24T01:52:18.374Z,99703.88
2023-07-24T01:54:46.326Z,99700.45
2023-07-24T01:57:17.253Z,99703.04
2023-07-24T01:59:46.342Z,99698.23
2023-07-24T02:02:14.422Z,99692.58
2023-07-24T02:04:42.396Z,99689.48
2023-07-24T02:07:10.414Z,99687.40
2023-07-24T02:09:38.255Z,99686.08
2023-07-24T02:12:06.780Z,99682.64
2023-07-24T02:14:34.750Z,99677.53
2023-07-24T02:17:02.610Z,99670.64
2023-07-24T02:19:30.505Z,99672.66
2023-07-24T02:21:58.440Z,99675.17
2023-07-24T02:24:26.481Z,99668.23
2023-07-24T02:26:54.376Z,99659.77
2023-07-24T02:29:23.758Z,99657.52
2023-07-24T02:31:51.998Z,99659.62
2023-07-24T02:34:19.818Z,99657.27
2023-07-24T02:36:47.977Z,99653.05
2023-07-24T02:39:16.020Z,99643.58
2023-07-24T02:41:43.796Z,99643.90
2023-07-24T02:44:11.699Z,99647.06
2023-07-24T02:46:41.301Z,99650.27
2023-07-24T02:49:11.925Z,99652.61
2023-07-24T02:51:39.673Z,99649.17
2023-07-24T02:54:09.083Z,99650.23
2023-07-24T02:56:37.181Z,99649.88
2023-07-24T02:59:07.935Z,99648.98
2023-07-24T03:01:35.865Z,99648.27
2023-07-24T03:04:04.168Z,99650.52
2023-07-24T03:06:32.365Z,99647.32
2023-07-24T03:09:00.281Z,99648.84
2023-07-24T03:11:28.445Z,99644.95
2023-07-24T03:13:56.449Z,99642.10
2023-07-24T03:16:24.480Z,99639.58
2023-07-24T03:18:55.281Z,99647.31
2023-07-24T03:21:23.112Z,99642.87
2023-07-24T03:23:50.863Z,99644.15
2023-07-24T03:26:18.809Z,99644.08
2023-07-24T03:28:46.682Z,99649.52
2023-07-24T03:31:14.498Z,99647.53
2023-07-24T03:33:44.632Z,99649.19
2023-07-24T03:36:12.431Z,99652.59
2023-07-24T03:38:40.357Z,99650.10
2023-07-24T03:41:08.109Z,99648.61
2023-07-24T03:43:36.418Z,99651.19
2023-07-24T03:46:04.739Z,99652.03
2023-07-24T03:48:32.749Z,99648.38
2023-07-24T03:51:01.403Z,99644.91
2023-07-24T03:53:29.608Z,99640.77
2023-07-24T03:56:00.667Z,99639.24
2023-07-24T03:58:28.700Z,99638.56
2023-07-24T04:00:56.632Z,99634.66
2023-07-24T04:03:24.687Z,99638.18
2023-07-24T04:05:52.578Z,99635.63
2023-07-24T04:08:20.570Z,99631.30
2023-07-24T04:10:48.303Z,99629.76
2023-07-24T04:13:16.226Z,99632.21
2023-07-24T04:15:45.587Z,99637.89
2023-07-24T04:18:13.686Z,99642.02
2023-07-24T04:20:41.486Z,99646.27
2023-07-24T04:23:09.447Z,99652.91
2023-07-24T04:25:37.255Z,99654.34
2023-07-24T04:28:05.278Z,99652.73
2023-07-24T04:30:34.041Z,99653.67
2023-07-24T04:33:02.297Z,99652.90
2023-07-24T04:35:30.125Z,99647.75
2023-07-24T04:37:58.678Z,99649.73
2023-07-24T04:40:26.614Z,99643.58
2023-07-24T04:42:54.517Z,99644.34
2023-07-24T04:45:24.019Z,99645.26
2023-07-24T04:47:52.376Z,99646.39
2023-07-24T04:50:20.315Z,99647.14
2023-07-24T04:52:48.536Z,99648.10
2023-07-24T04:55:16.588Z,99644.90
2023-07-24T04:57:44.471Z,99644.83
2023-07-24T05:00:12.705Z,99645.67
2023-07-24T05:02:40.611Z,99644.59
2023-07-24T05:05:09.108Z,99644.09
2023-07-24T05:07:37.138Z,99644.36
2023-07-24T05:10:05.572Z,99644.50
2023-07-24T05:12:33.315Z,99640.79
2023-07-24T05:15:01.209Z,99637.08
2023-07-24T05:17:29.043Z,99632.11
2023-07-24T05:19:56.941Z,99628.53
2023-07-24T05:22:24.894Z,99624.80
2023-07-24T05:24:53.013Z,99621.33
2023-07-24T05:27:20.842Z,99616.72
2023-07-24T05:29:48.659Z,99616.73
2023-07-24T05:32:16.678Z,99607.02
2023-07-24T05:34:46.319Z,99603.18
2023-07-24T05:37:14.570Z,99598.42
2023-07-24T05:39:42.473Z,99594.25
2023-07-24T05:42:13.320Z,99590.59
2023-07-24T05:44:41.698Z,99588.17
2023-07-24T05:47:09.520Z,99583.11
2023-07-24T05:49:37.412Z,99575.30
2023-07-24T05:52:05.364Z,99573.56
2023-07-24T05:54:33.169Z,99565.45
2023-07-24T05:57:01.095Z,99566.32
2023-07-24T05:59:29.139Z,99563.41
2023-07-24T06:01:57.101Z,99563.05
2023-07-24T06:04:25.270Z,99559.36
2023-07-24T06:06:53.577Z,99558.86
2023-07-24T06:09:22.308Z,99558.16
2023-07-24T06:11:50.285Z,99561.45
2023-07-24T06:14:18.205Z,99559.35
2023-07-24T06:16:46.072Z,99559.30
2023-07-24T06:19:14.034Z,99553.42
2023-07-24T06:21:42.228Z,99552.34
2023-07-24T06:24:13.460Z,99553.02
2023-07-24T06:26:41.661Z,99546.05
2023-07-24T06:29:09.613Z,99549.48
2023-07-24T06:31:38.819Z,99552.23
2023-07-24T06:34:06.900Z,99554.23
2023-07-24T06:36:37.528Z,99555.39
2023-07-24T06:39:05.383Z,99551.86
2023-07-24T06:41:33.229Z,99552.16
2023-07-24T06:44:01.257Z,99555.09
2023-07-24T06:46:29.326Z,99548.84
2023-07-24T06:48:57.402Z,99545.58
2023-07-24T06:51:25.460Z,99549.46
2023-07-24T06:53:53.633Z,99542.20
2023-07-24T07:02:01.982Z,99538.85
2023-07-24T07:04:29.872Z,99537.80
2023-07-24T07:06:57.771Z,99532.61
2023-07-24T07:09:26.124Z,99524.80
2023-07-24T07:11:53.914Z,99521.41
2023-07-24T07:14:21.875Z,99521.98
2023-07-24T07:16:49.737Z,99522.92
2023-07-24T07:19:17.685Z,99523.62
2023-07-24T07:21:45.649Z,99521.63
2023-07-24T07:24:13.918Z,99522.41
2023-07-24T07:26:41.907Z,99520.91
2023-07-24T07:29:10.277Z,99512.16
2023-07-24T07:31:38.278Z,99511.91
2023-07-24T07:34:06.137Z,99515.46
2023-07-24T07:36:34.039Z,99512.65
2023-07-24T07:39:02.666Z,99509.30
2023-07-24T07:41:30.698Z,99509.75
2023-07-24T07:43:58.921Z,99508.45
2023-07-24T07:46:27.319Z,99505.02
2023-07-24T07:48:55.413Z,99501.14
2023-07-24T07:51:25.532Z,99490.58
2023-07-24T07:53:53.553Z,99494.20
2023-07-24T07:56:21.424Z,99493.67
2023-07-24T07:58:50.355Z,99491.70
2023-07-24T08:01:18.203Z,99492.27
2023-07-24T08:03:46.244Z,99489.75
2023-07-24T08:06:14.076Z,99495.29
2023-07-24T08:08:42.206Z,99493.45
2023-07-24T08:11:10.237Z,99493.73
2023-07-24T08:13:38.359Z,99495.19
2023-07-24T08:16:18.701Z,99497.73
2023-07-24T08:18:48.384Z,99491.48
2023-07-24T08:21:16.652Z,99487.64
2023-07-24T08:23:44.812Z,99487.42
2023-07-24T08:26:12.707Z,99492.66
2023-07-24T08:28:43.529Z,99493.55
2023-07-24T08:31:11.746Z,99489.10
2023-07-24T08:33:39.861Z,99494.97
2023-07-24T08:36:09.216Z,99498.59
2023-07-24T08:38:37.852Z,99492.21
2023-07-24T08:41:13.283Z,99478.52
2023-07-24T08:43:43.888Z,99486.30
2023-07-24T08:46:12.092Z,99488.42
2023-07-24T08:48:41.741Z,99489.74
2023-07-24T08:51:13.872Z,99482.46
2023-07-24T08:53:43.991Z,99486.23
2023-07-24T08:56:17.070Z,99492.20
2023-07-24T08:58:45.004Z,99484.31
2023-07-24T09:01:13.085Z,99474.60
2023-07-24T09:03:41.520Z,99469.77
2023-07-24T09:06:09.450Z,99468.04
2023-07-24T09:08:44.720Z,99466.30
2023-07-24T09:11:15.165Z,99462.77
2023-07-24T09:13:44.274Z,99459.80
2023-07-24T09:16:28.007Z,99451.54
2023-07-24T09:21:33.721Z,99442.37
2023-07-24T09:24:15.563Z,99442.03
2023-07-24T09:26:50.992Z,99439.63
2023-07-24T09:29:19.613Z,99438.09
2023-07-24T09:31:47.525Z,99430.30
2023-07-24T09:34:19.577Z,99426.52
2023-07-24T09:36:47.645Z,99436.04
2023-07-24T09:39:15.721Z,99438.55
2023-07-24T09:41:43.599Z,99443.83
2023-07-24T09:44:13.308Z,99441.59
2023-07-24T09:49:13.275Z,99431.84
2023-07-24T09:51:46.141Z,99424.28
2023-07-24T09:54:23.249Z,99422.58
2023-07-24T09:56:57.920Z,99415.42
2023-07-24T09:59:34.971Z,99416.70
2023-07-24T10:02:07.682Z,99427.58
2023-07-24T10:04:36.444Z,99432.70
2023-07-24T10:07:05.526Z,99431.27
2023-07-24T10:09:34.695Z,99423.73
2023-07-24T10:12:02.940Z,99423.90
2023-07-24T10:14:31.811Z,99426.15
2023-07-24T10:16:59.760Z,99420.27
2023-07-24T10:19:38.254Z,99410.86
2023-07-24T10:22:06.499Z,99407.66
2023-07-24T10:24:41.719Z,99407.84
2023-07-24T10:27:10.597Z,99410.87
2023-07-24T10:29:38.516Z,99404.44
2023-07-24T10:32:19.009Z,99406.08
2023-07-24T10:34:47.009Z,99405.29
2023-07-24T10:37:14.967Z,99409.77
2023-07-24T10:39:43.142Z,99409.50
2023-07-24T10:42:12.011Z,99406.87
2023-07-24T10:44:40.442Z,99401.23
2023-07-24T10:47:08.216Z,99397.34
2023-07-24T10:49:36.609Z,99390.84
2023-07-24T10:52:04.709Z,99391.16
2023-07-24T10:54:33.898Z,99389.88
2023-07-24T10:57:05.036Z,99382.59
2023-07-24T10:59:40.276Z,99374.96
2023-07-24T11:02:08.796Z,99363.41
2023-07-24T11:04:37.317Z,99360.77
2023-07-24T11:07:05.399Z,99360.13
2023-07-24T11:09:37.659Z,99356.53
2023-07-24T11:12:15.875Z,99349.77
2023-07-24T11:14:51.383Z,99352.69
2023-07-24T11:17:19.489Z,99346.66
2023-07-24T11:19:47.532Z,99347.48
2023-07-24T11:22:15.598Z,99341.09
2023-07-24T11:24:48.211Z,99331.75
2023-07-24T11:27:18.169Z,99335.52
2023-07-24T11:29:50.533Z,99337.36
2023-07-24T11:32:23.024Z,99340.38
2023-07-24T11:34:51.891Z,99339.67
2023-07-24T11:37:20.205Z,99338.82
2023-07-24T11:39:58.859Z,99336.89
2023-07-24T11:42:28.406Z,99336.05
2023-07-24T11:44:56.347Z,99334.47
2023-07-24T11:47:24.200Z,99335.70
2023-07-24T11:50:00.332Z,99332.54
2023-07-24T11:52:48.373Z,99323.98
2023-07-24T11:55:32.913Z,99319.52
2023-07-24T11:58:02.701Z,99316.80
2023-07-24T12:00:37.296Z,99310.40
2023-07-24T12:03:06.493Z,99314.00
2023-07-24T12:05:46.271Z,99312.48
2023-07-24T12:08:16.822Z,99301.34
2023-07-24T12:10:44.879Z,99298.09
2023-07-24T12:13:13.770Z,99287.92
2023-07-24T12:15:41.829Z,99286.91
2023-07-24T12:18:09.660Z,99287.83
2023-07-24T12:20:37.633Z,99283.46
2023-07-24T12:23:05.671Z,99281.53
2023-07-24T12:25:33.873Z,99281.70
2023-07-24T12:28:01.762Z,99276.44
2023-07-24T12:30:29.873Z,99269.90
2023-07-24T12:32:57.832Z,99267.95
2023-07-24T12:35:25.720Z,99269.01
2023-07-24T12:37:53.776Z,99267.39
2023-07-24T12:40:21.818Z,99268.75
2023-07-24T12:42:49.761Z,99263.79
2023-07-24T12:45:17.828Z,99262.15
2023-07-24T12:47:45.683Z,99260.16
2023-07-24T12:50:13.653Z,99255.55
2023-07-24T12:52:42.044Z,99246.57
2023-07-24T12:55:10.440Z,99247.59
2023-07-24T12:57:38.421Z,99243.76
2023-07-24T13:00:07.048Z,99242.83
2023-07-24T13:02:35.185Z,99243.85
2023-07-24T13:05:04.505Z,99242.06
2023-07-24T13:07:32.300Z,99249.75
2023-07-24T13:10:00.411Z,99247.77
2023-07-24T13:12:28.680Z,99245.11
2023-07-24T13:14:56.634Z,99240.36
2023-07-24T13:17:24.711Z,99241.77
2023-07-24T13:19:52.505Z,99239.86
2023-07-24T13:22:20.445Z,99233.54
2023-07-24T13:24:48.442Z,99232.83
2023-07-24T13:27:16.310Z,99229.48
2023-07-24T13:29:44.743Z,99231.23
2023-07-24T13:32:12.862Z,99225.98
2023-07-24T13:34:40.816Z,99221.05
2023-07-24T13:37:09.085Z,99217.16
2023-07-24T13:39:37.050Z,99213.48
2023-07-24T13:42:05.187Z,99211.38
2023-07-24T13:44:33.060Z,99210.14
2023-07-24T13:47:01.262Z,99208.73
2023-07-24T13:49:29.317Z,99198.36
2023-07-24T13:51:57.393Z,99197.64
2023-07-24T13:54:25.205Z,99196.03
2023-07-24T13:56:53.640Z,99188.45
2023-07-24T13:59:21.611Z,99180.55
2023-07-24T14:01:51.422Z,99171.96
2023-07-24T14:04:19.446Z,99154.86
2023-07-24T14:06:47.617Z,99149.85
2023-07-24T14:09:15.489Z,99163.60
2023-07-24T14:11:43.459Z,99162.21
2023-07-24T14:14:12.631Z,99160.14
2023-07-24T14:16:42.992Z,99165.42
2023-07-24T14:19:11.302Z,99164.77
2023-07-24T14:21:39.390Z,99162.21
2023-07-24T14:24:07.328Z,99162.27
2023-07-24T14:26:37.424Z,99156.21
2023-07-24T14:29:05.344Z,99144.88
2023-07-24T14:31:33.956Z,99140.38
2023-07-24T14:34:02.275Z,99138.19
2023-07-24T14:36:35.393Z,99139.13
2023-07-24T14:39:04.582Z,99138.11
2023-07-24T14:41:33.266Z,99130.61
2023-07-24T14:44:02.130Z,99122.05
2023-07-24T14:46:30.041Z,99111.39
2023-07-24T14:48:57.848Z,99107.74
2023-07-24T14:51:26.531Z,99110.73
2023-07-24T14:53:54.439Z,99105.83
2023-07-24T14:56:22.373Z,99102.30
2023-07-24T14:58:50.331Z,99101.42
2023-07-24T15:01:18.316Z,99098.05
2023-07-24T15:03:46.373Z,99094.16
2023-07-24T15:06:14.361Z,99085.89
2023-07-24T15:08:42.207Z,99083.20
2023-07-24T15:11:10.107Z,99080.02
2023-07-24T15:13:38.121Z,99079.29
2023-07-24T15:16:06.086Z,99078.54
2023-07-24T15:18:36.258Z,99086.71
2023-07-24T15:21:04.230Z,99082.65
2023-07-24T15:23:32.242Z,99076.12
2023-07-24T15:26:00.107Z,99079.40
2023-07-24T15:28:28.210Z,99077.27
2023-07-24T15:30:56.424Z,99066.70
2023-07-24T15:33:24.681Z,99054.04
2023-07-24T15:35:52.475Z,99052.95
2023-07-24T15:38:20.451Z,99046.98
2023-07-24T15:40:48.521Z,99048.16
2023-07-24T15:43:17.183Z,99049.19
2023-07-24T15:45:45.025Z,99046.88
2023-07-24T15:48:13.285Z,99042.27
2023-07-24T15:50:42.512Z,99035.76
2023-07-24T15:53:10.365Z,99029.24
2023-07-24T15:55:39.488Z,99025.90
2023-07-24T15:58:07.519Z,99018.69
2023-07-24T16:00:35.524Z,99011.67
2023-07-24T16:03:03.812Z,99012.70
2023-07-24T16:05:32.167Z,99013.20
2023-07-24T16:08:00.155Z,99022.64
2023-07-24T16:10:28.162Z,99022.25
2023-07-24T16:12:56.007Z,99026.92
2023-07-24T16:20:28.622Z,99027.33
2023-07-24T16:22:56.774Z,99025.90
2023-07-24T16:25:24.919Z,99020.61
2023-07-24T16:27:52.867Z,99018.85
2023-07-24T16:30:22.238Z,99017.42
2023-07-24T16:32:51.095Z,99010.56
2023-07-24T16:35:19.330Z,98987.78
2023-07-24T16:37:48.895Z,98986.89
2023-07-24T16:40:17.267Z,98994.22
2023-07-24T16:42:46.641Z,98985.44
2023-07-24T16:45:29.286Z,98976.48
2023-07-24T16:48:03.602Z,98967.86
2023-07-24T16:50:33.130Z,98963.96
2023-07-24T16:53:01.054Z,98963.05
2023-07-24T16:55:30.238Z,98972.27
2023-07-24T16:57:58.730Z,98972.23
2023-07-24T17:00:26.719Z,98977.23
2023-07-24T17:02:54.850Z,98976.64
2023-07-24T17:05:22.816Z,98976.44
2023-07-24T17:07:50.611Z,98982.68
2023-07-24T17:10:19.680Z,98981.58
2023-07-24T17:12:47.605Z,98975.95
2023-07-24T17:15:15.512Z,98972.23
2023-07-24T17:17:44.758Z,98965.90
2023-07-24T17:20:12.556Z,98956.58
2023-07-24T17:22:40.494Z,98950.09
2023-07-24T17:25:08.931Z,98953.90
2023-07-24T17:27:38.122Z,98957.88
2023-07-24T17:30:06.792Z,98951.88
2023-07-24T17:32:34.722Z,98961.98
2023-07-24T17:35:02.526Z,98960.89
2023-07-24T17:37:38.576Z,98959.96
2023-07-24T17:40:09.631Z,98953.80
2023-07-24T17:42:38.475Z,98954.10
2023-07-24T17:45:06.790Z,98951.25
2023-07-24T17:47:35.641Z,98952.61
2023-07-24T17:50:07.808Z,98958.69
2023-07-24T17:52:37.581Z,98951.31
2023-07-24T17:55:06.577Z,98948.67
2023-07-24T17:57:34.854Z,98946.19
2023-07-24T18:00:04.444Z,98946.68
2023-07-24T18:02:32.446Z,98945.96
2023-07-24T18:05:00.442Z,98944.56
2023-07-24T18:07:28.398Z,98944.38
2023-07-24T18:09:56.301Z,98948.70
2023-07-24T18:12:24.693Z,98951.10
2023-07-24T18:14:52.443Z,98953.86
2023-07-24T18:17:20.486Z,98952.92
2023-07-24T18:19:48.469Z,98948.87
2023-07-24T18:22:18.944Z,98945.16
2023-07-24T18:24:46.846Z,98948.42
2023-07-24T18:27:14.828Z,98954.86
2023-07-24T18:29:42.758Z,98951.67
2023-07-24T18:32:10.770Z,98953.72
2023-07-24T18:34:38.615Z,98954.36
2023-07-24T18:37:08.047Z,98953.44
2023-07-24T18:39:36.044Z,98951.11
2023-07-24T18:42:04.644Z,98947.22
2023-07-24T18:44:34.497Z,98953.27
2023-07-24T18:47:02.334Z,98948.65
2023-07-24T18:49:30.643Z,98947.20
2023-07-24T18:51:58.412Z,98943.50
2023-07-24T18:54:26.378Z,98947.45
2023-07-24T18:56:56.054Z,98944.42
2023-07-24T18:59:23.906Z,98943.85
2023-07-24T19:01:51.850Z,98943.98
2023-07-24T19:04:19.690Z,98941.15
2023-07-24T19:06:47.679Z,98935.51
2023-07-24T19:09:15.750Z,98931.08
2023-07-24T19:11:43.722Z,98939.93
2023-07-24T19:14:11.910Z,98937.95
2023-07-24T19:16:39.901Z,98934.95
2023-07-24T19:19:09.264Z,98925.14
2023-07-24T19:21:37.534Z,98925.98
2023-07-24T19:24:06.012Z,98925.41
2023-07-24T19:26:33.908Z,98919.44
2023-07-24T19:29:02.308Z,98912.27
2023-07-24T19:31:30.654Z,98917.77
2023-07-24T19:33:58.988Z,98920.51
2023-07-24T19:36:27.102Z,98926.39
2023-07-24T19:38:54.880Z,98924.61
2023-07-24T19:41:22.909Z,98921.41
2023-07-24T19:43:50.874Z,98921.89
2023-07-24T19:46:18.692Z,98916.29
2023-07-24T19:48:46.744Z,98906.48
2023-07-24T19:51:14.618Z,98914.48
2023-07-24T19:53:42.555Z,98918.61
2023-07-24T19:56:10.497Z,98921.18
2023-07-24T19:58:38.655Z,98919.92
2023-07-24T20:01:07.327Z,98924.60
2023-07-24T20:03:35.482Z,98921.39
2023-07-24T20:06:07.508Z,98918.20
2023-07-24T20:08:35.953Z,98923.21
2023-07-24T20:11:08.135Z,98929.05
2023-07-24T20:13:36.925Z,98931.45
2023-07-24T20:16:05.128Z,98935.21
2023-07-24T20:18:32.994Z,98931.69
2023-07-24T20:21:01.616Z,98938.09
2023-07-24T20:23:29.633Z,98934.22
2023-07-24T20:25:57.392Z,98933.49
2023-07-24T20:28:27.854Z,98934.50
2023-07-24T20:30:56.052Z,98934.96
2023-07-24T20:33:25.197Z,98936.31
2023-07-24T20:35:54.110Z,98934.87
2023-07-24T20:38:31.276Z,98933.78
2023-07-24T20:40:59.806Z,98931.45
2023-07-24T20:43:28.533Z,98936.64
2023-07-24T20:45:57.035Z,98942.86
2023-07-24T20:48:27.603Z,98941.22
2023-07-24T20:50:55.486Z,98939.96
2023-07-24T20:53:23.262Z,98937.64
2023-07-24T20:55:51.056Z,98942.78
2023-07-24T20:58:19.075Z,98946.02
2023-07-24T21:00:47.053Z,98943.01
2023-07-24T21:03:15.395Z,98941.38
2023-07-24T21:05:43.239Z,98938.71
2023-07-24T21:08:11.516Z,98938.83
2023-07-24T21:10:39.571Z,98940.33
2023-07-24T21:13:07.350Z,98936.61
2023-07-24T21:15:35.417Z,98944.23
2023-07-24T21:18:03.638Z,98945.02
2023-07-24T21:20:31.424Z,98950.35
2023-07-24T21:22:59.449Z,98952.20
2023-07-24T21:25:27.625Z,98951.98
2023-07-24T21:27:55.591Z,98948.95
2023-07-24T21:30:24.504Z,98952.94
2023-07-24T21:32:53.360Z,98954.64
2023-07-24T21:35:21.767Z,98950.05
2023-07-24T21:37:49.649Z,98951.58
2023-07-24T21:40:17.766Z,98956.89
2023-07-24T21:42:45.776Z,98955.62
2023-07-24T21:45:14.739Z,98955.73
2023-07-24T21:47:42.815Z,98957.94
2023-07-24T21:50:10.892Z,98960.11
2023-07-24T21:52:38.807Z,98964.05
2023-07-24T21:55:07.045Z,98969.38
2023-07-24T21:57:34.932Z,98967.91
2023-07-24T22:00:04.777Z,98974.64
2023-07-24T22:02:33.010Z,98978.92
2023-07-24T22:05:01.089Z,98980.21
2023-07-24T22:07:29.200Z,98985.73
2023-07-24T22:09:57.202Z,98986.16
2023-07-24T22:12:25.039Z,98981.89
2023-07-24T22:14:52.928Z,98982.66
2023-07-24T22:17:20.999Z,98980.84
2023-07-24T22:19:48.969Z,98986.19
2023-07-24T22:22:17.283Z,98989.05
2023-07-24T22:24:45.300Z,98990.70
2023-07-24T22:27:13.280Z,98995.18
2023-07-24T22:29:41.473Z,98991.98
2023-07-24T22:32:09.648Z,98993.15
2023-07-24T22:34:37.891Z,98997.64
2023-07-24T22:37:07.669Z,99006.64
2023-07-24T22:39:36.078Z,99013.20
2023-07-24T22:42:04.212Z,99012.83
2023-07-24T22:44:32.353Z,99016.05
2023-07-24T22:47:00.440Z,99014.60
2023-07-24T22:49:28.601Z,99011.55
2023-07-24T22:51:56.664Z,99013.86
2023-07-24T22:54:24.928Z,99018.64
2023-07-24T22:56:52.760Z,99017.13
2023-07-24T22:59:28.446Z,99021.03
2023-07-24T23:01:58.161Z,99016.08
2023-07-24T23:04:26.768Z,99021.37
2023-07-24T23:06:58.674Z,99032.26
2023-07-24T23:09:26.815Z,99036.69
2023-07-24T23:11:54.648Z,99041.30
2023-07-24T23:14:22.600Z,99042.78
2023-07-24T23:16:50.942Z,99045.16
2023-07-24T23:19:18.861Z,99050.30
2023-07-24T23:21:46.938Z,99053.73
2023-07-24T23:24:15.000Z,99055.92
2023-07-24T23:26:43.043Z,99053.60
2023-07-24T23:29:10.905Z,99055.81
2023-07-24T23:31:38.955Z,99058.15
2023-07-24T23:34:07.011Z,99054.44
2023-07-24T23:36:34.934Z,99046.92
2023-07-24T23:39:03.227Z,99036.93
2023-07-24T23:41:31.541Z,99043.15
2023-07-24T23:43:59.767Z,99044.27
2023-07-24T23:46:28.026Z,99047.15
2023-07-24T23:48:56.004Z,99050.70
2023-07-24T23:51:24.245Z,99054.13
2023-07-24T23:53:52.111Z,99052.16
2023-07-24T23:56:20.219Z,99059.39
2023-07-24T23:58:48.158Z,99058.13
